sensor_id;sensor_type;location;lat;lon;timestamp;P1;P2;P0
52290;PMS5003;39663;45.432;28.050;2024-03-02T00:00:28;28.0;27.0;
52290;PMS5003;39663;45.432;28.050;2024-03-02T00:00:59;35.0;29.0;
52290;PMS5003;39663;45.432;28.050;2024-03-02T00:01:31;32.0;30.0;
52290;PMS5003;39663;45.432;28.050;2024-03-02T00:02:07;31.0;29.0;
52290;PMS5003;39663;45.432;28.050;2024-03-02T00:02:40;30.0;28.0;
52290;PMS5003;39663;45.432;28.050;2024-03-02T00:03:13;35.0;29.0;
52290;PMS5003;39663;45.432;28.050;2024-03-02T00:03:44;30.0;27.0;
52290;PMS5003;39663;45.432;28.050;2024-03-02T00:04:16;30.0;28.0;
52290;PMS5003;39663;45.432;28.050;2024-03-02T00:04:48;29.0;28.0;
52290;PMS5003;39663;45.432;28.050;2024-03-02T00:05:20;32.0;29.0;
52290;PMS5003;39663;45.432;28.050;2024-03-02T00:05:53;24.0;21.0;
52290;PMS5003;39663;45.432;28.050;2024-03-02T00:06:25;32.0;28.0;
52290;PMS5003;39663;45.432;28.050;2024-03-02T00:06:57;26.0;24.0;
52290;PMS5003;39663;45.432;28.050;2024-03-02T00:07:28;30.0;25.0;
52290;PMS5003;39663;45.432;28.050;2024-03-02T00:08:00;28.0;25.0;
52290;PMS5003;39663;45.432;28.050;2024-03-02T00:08:38;26.0;25.0;
52290;PMS5003;39663;45.432;28.050;2024-03-02T00:09:20;24.0;24.0;
52290;PMS5003;39663;45.432;28.050;2024-03-02T00:09:52;34.0;29.0;
52290;PMS5003;39663;45.432;28.050;2024-03-02T00:10:25;25.0;22.0;
52290;PMS5003;39663;45.432;28.050;2024-03-02T00:11:00;30.0;25.0;
52290;PMS5003;39663;45.432;28.050;2024-03-02T00:11:34;25.0;25.0;
52290;PMS5003;39663;45.432;28.050;2024-03-02T00:12:06;25.0;24.0;
52290;PMS5003;39663;45.432;28.050;2024-03-02T00:12:38;25.0;23.0;
52290;PMS5003;39663;45.432;28.050;2024-03-02T00:13:09;27.0;25.0;
52290;PMS5003;39663;45.432;28.050;2024-03-02T00:13:43;33.0;29.0;
52290;PMS5003;39663;45.432;28.050;2024-03-02T00:14:15;26.0;25.0;
52290;PMS5003;39663;45.432;28.050;2024-03-02T00:14:47;36.0;31.0;
52290;PMS5003;39663;45.432;28.050;2024-03-02T00:15:25;33.0;30.0;
52290;PMS5003;39663;45.432;28.050;2024-03-02T00:16:10;29.0;26.0;
52290;PMS5003;39663;45.432;28.050;2024-03-02T00:16:41;27.0;24.0;
52290;PMS5003;39663;45.432;28.050;2024-03-02T00:17:16;27.0;23.0;
52290;PMS5003;39663;45.432;28.050;2024-03-02T00:17:54;34.0;31.0;
52290;PMS5003;39663;45.432;28.050;2024-03-02T00:18:26;44.0;41.0;
52290;PMS5003;39663;45.432;28.050;2024-03-02T00:19:03;42.0;36.0;
52290;PMS5003;39663;45.432;28.050;2024-03-02T00:19:38;43.0;41.0;
52290;PMS5003;39663;45.432;28.050;2024-03-02T00:20:09;33.0;32.0;
52290;PMS5003;39663;45.432;28.050;2024-03-02T00:20:45;40.0;38.0;
52290;PMS5003;39663;45.432;28.050;2024-03-02T00:21:17;35.0;32.0;
52290;PMS5003;39663;45.432;28.050;2024-03-02T00:21:49;41.0;37.0;
52290;PMS5003;39663;45.432;28.050;2024-03-02T00:22:21;46.0;38.0;
52290;PMS5003;39663;45.432;28.050;2024-03-02T00:22:53;33.0;30.0;
52290;PMS5003;39663;45.432;28.050;2024-03-02T00:23:33;33.0;32.0;
52290;PMS5003;39663;45.432;28.050;2024-03-02T00:24:12;42.0;38.0;
52290;PMS5003;39663;45.432;28.050;2024-03-02T00:24:52;36.0;35.0;
52290;PMS5003;39663;45.432;28.050;2024-03-02T00:25:23;45.0;42.0;
52290;PMS5003;39663;45.432;28.050;2024-03-02T00:25:54;39.0;37.0;
52290;PMS5003;39663;45.432;28.050;2024-03-02T00:26:26;31.0;29.0;
52290;PMS5003;39663;45.432;28.050;2024-03-02T00:26:58;38.0;35.0;
52290;PMS5003;39663;45.432;28.050;2024-03-02T00:27:30;32.0;29.0;
52290;PMS5003;39663;45.432;28.050;2024-03-02T00:28:02;31.0;27.0;
52290;PMS5003;39663;45.432;28.050;2024-03-02T00:28:35;35.0;33.0;
52290;PMS5003;39663;45.432;28.050;2024-03-02T00:29:07;31.0;31.0;
52290;PMS5003;39663;45.432;28.050;2024-03-02T00:29:38;39.0;36.0;
52290;PMS5003;39663;45.432;28.050;2024-03-02T00:30:16;46.0;41.0;
52290;PMS5003;39663;45.432;28.050;2024-03-02T00:31:16;42.0;42.0;
52290;PMS5003;39663;45.432;28.050;2024-03-02T00:31:51;45.0;41.0;
52290;PMS5003;39663;45.432;28.050;2024-03-02T00:32:24;44.0;43.0;
52290;PMS5003;39663;45.432;28.050;2024-03-02T00:33:06;50.0;44.0;
52290;PMS5003;39663;45.432;28.050;2024-03-02T00:33:39;43.0;42.0;
52290;PMS5003;39663;45.432;28.050;2024-03-02T00:34:12;39.0;38.0;
52290;PMS5003;39663;45.432;28.050;2024-03-02T00:34:45;45.0;40.0;
52290;PMS5003;39663;45.432;28.050;2024-03-02T00:35:16;47.0;41.0;
52290;PMS5003;39663;45.432;28.050;2024-03-02T00:35:48;44.0;40.0;
52290;PMS5003;39663;45.432;28.050;2024-03-02T00:36:22;50.0;48.0;
52290;PMS5003;39663;45.432;28.050;2024-03-02T00:37:01;41.0;39.0;
52290;PMS5003;39663;45.432;28.050;2024-03-02T00:37:33;42.0;34.0;
52290;PMS5003;39663;45.432;28.050;2024-03-02T00:38:06;46.0;40.0;
52290;PMS5003;39663;45.432;28.050;2024-03-02T00:38:44;34.0;33.0;
52290;PMS5003;39663;45.432;28.050;2024-03-02T00:39:17;35.0;31.0;
52290;PMS5003;39663;45.432;28.050;2024-03-02T00:39:49;38.0;35.0;
52290;PMS5003;39663;45.432;28.050;2024-03-02T00:40:21;38.0;36.0;
52290;PMS5003;39663;45.432;28.050;2024-03-02T00:40:58;32.0;28.0;
52290;PMS5003;39663;45.432;28.050;2024-03-02T00:41:34;31.0;26.0;
52290;PMS5003;39663;45.432;28.050;2024-03-02T00:42:05;28.0;25.0;
52290;PMS5003;39663;45.432;28.050;2024-03-02T00:42:37;30.0;28.0;
52290;PMS5003;39663;45.432;28.050;2024-03-02T00:43:10;40.0;34.0;
52290;PMS5003;39663;45.432;28.050;2024-03-02T00:44:09;36.0;31.0;
52290;PMS5003;39663;45.432;28.050;2024-03-02T00:44:43;42.0;35.0;
52290;PMS5003;39663;45.432;28.050;2024-03-02T00:45:14;40.0;35.0;
52290;PMS5003;39663;45.432;28.050;2024-03-02T00:45:46;37.0;34.0;
52290;PMS5003;39663;45.432;28.050;2024-03-02T00:46:18;39.0;34.0;
52290;PMS5003;39663;45.432;28.050;2024-03-02T00:46:50;36.0;34.0;
52290;PMS5003;39663;45.432;28.050;2024-03-02T00:47:22;35.0;34.0;
52290;PMS5003;39663;45.432;28.050;2024-03-02T00:47:58;31.0;28.0;
52290;PMS5003;39663;45.432;28.050;2024-03-02T00:48:31;32.0;32.0;
52290;PMS5003;39663;45.432;28.050;2024-03-02T00:49:03;33.0;33.0;
52290;PMS5003;39663;45.432;28.050;2024-03-02T00:49:36;30.0;28.0;
52290;PMS5003;39663;45.432;28.050;2024-03-02T00:50:07;28.0;26.0;
52290;PMS5003;39663;45.432;28.050;2024-03-02T00:50:39;32.0;30.0;
52290;PMS5003;39663;45.432;28.050;2024-03-02T00:51:11;33.0;31.0;
52290;PMS5003;39663;45.432;28.050;2024-03-02T00:51:44;40.0;33.0;
52290;PMS5003;39663;45.432;28.050;2024-03-02T00:52:20;34.0;33.0;
52290;PMS5003;39663;45.432;28.050;2024-03-02T00:52:52;28.0;27.0;
52290;PMS5003;39663;45.432;28.050;2024-03-02T00:53:23;25.0;21.0;
52290;PMS5003;39663;45.432;28.050;2024-03-02T00:53:58;29.0;24.0;
52290;PMS5003;39663;45.432;28.050;2024-03-02T00:54:30;29.0;26.0;
52290;PMS5003;39663;45.432;28.050;2024-03-02T00:55:02;30.0;28.0;
52290;PMS5003;39663;45.432;28.050;2024-03-02T00:55:35;28.0;24.0;
52290;PMS5003;39663;45.432;28.050;2024-03-02T00:56:09;37.0;33.0;
52290;PMS5003;39663;45.432;28.050;2024-03-02T00:56:43;37.0;32.0;
52290;PMS5003;39663;45.432;28.050;2024-03-02T00:57:17;31.0;28.0;
52290;PMS5003;39663;45.432;28.050;2024-03-02T00:57:48;35.0;35.0;
52290;PMS5003;39663;45.432;28.050;2024-03-02T00:58:19;38.0;34.0;
52290;PMS5003;39663;45.432;28.050;2024-03-02T00:58:51;34.0;32.0;
52290;PMS5003;39663;45.432;28.050;2024-03-02T01:09:35;37.0;31.0;
52290;PMS5003;39663;45.432;28.050;2024-03-02T01:10:07;31.0;28.0;
52290;PMS5003;39663;45.432;28.050;2024-03-02T01:10:39;34.0;32.0;
52290;PMS5003;39663;45.432;28.050;2024-03-02T01:11:11;36.0;31.0;
52290;PMS5003;39663;45.432;28.050;2024-03-02T01:11:42;28.0;27.0;
52290;PMS5003;39663;45.432;28.050;2024-03-02T01:12:14;33.0;33.0;
52290;PMS5003;39663;45.432;28.050;2024-03-02T01:12:45;35.0;31.0;
52290;PMS5003;39663;45.432;28.050;2024-03-02T01:13:17;39.0;35.0;
52290;PMS5003;39663;45.432;28.050;2024-03-02T01:13:48;33.0;30.0;
52290;PMS5003;39663;45.432;28.050;2024-03-02T01:14:20;31.0;30.0;
52290;PMS5003;39663;45.432;28.050;2024-03-02T01:14:51;26.0;25.0;
52290;PMS5003;39663;45.432;28.050;2024-03-02T01:15:23;33.0;32.0;
52290;PMS5003;39663;45.432;28.050;2024-03-02T01:15:54;37.0;31.0;
52290;PMS5003;39663;45.432;28.050;2024-03-02T01:16:26;34.0;32.0;
52290;PMS5003;39663;45.432;28.050;2024-03-02T01:16:58;38.0;33.0;
52290;PMS5003;39663;45.432;28.050;2024-03-02T01:17:29;29.0;28.0;
52290;PMS5003;39663;45.432;28.050;2024-03-02T01:18:01;39.0;38.0;
52290;PMS5003;39663;45.432;28.050;2024-03-02T01:18:32;33.0;32.0;
52290;PMS5003;39663;45.432;28.050;2024-03-02T01:19:04;36.0;33.0;
52290;PMS5003;39663;45.432;28.050;2024-03-02T01:19:36;33.0;33.0;
52290;PMS5003;39663;45.432;28.050;2024-03-02T01:20:07;34.0;31.0;
52290;PMS5003;39663;45.432;28.050;2024-03-02T01:20:39;27.0;27.0;
52290;PMS5003;39663;45.432;28.050;2024-03-02T01:21:11;40.0;33.0;
52290;PMS5003;39663;45.432;28.050;2024-03-02T01:21:48;38.0;37.0;
52290;PMS5003;39663;45.432;28.050;2024-03-02T01:22:20;40.0;34.0;
52290;PMS5003;39663;45.432;28.050;2024-03-02T01:22:51;44.0;37.0;
52290;PMS5003;39663;45.432;28.050;2024-03-02T01:23:23;43.0;39.0;
52290;PMS5003;39663;45.432;28.050;2024-03-02T01:23:55;37.0;35.0;
52290;PMS5003;39663;45.432;28.050;2024-03-02T01:24:26;46.0;44.0;
52290;PMS5003;39663;45.432;28.050;2024-03-02T01:24:58;44.0;41.0;
52290;PMS5003;39663;45.432;28.050;2024-03-02T01:25:30;46.0;41.0;
52290;PMS5003;39663;45.432;28.050;2024-03-02T01:26:01;46.0;45.0;
52290;PMS5003;39663;45.432;28.050;2024-03-02T01:26:33;50.0;45.0;
52290;PMS5003;39663;45.432;28.050;2024-03-02T01:27:05;36.0;34.0;
52290;PMS5003;39663;45.432;28.050;2024-03-02T01:27:36;42.0;41.0;
52290;PMS5003;39663;45.432;28.050;2024-03-02T01:28:07;49.0;42.0;
52290;PMS5003;39663;45.432;28.050;2024-03-02T01:28:39;45.0;40.0;
52290;PMS5003;39663;45.432;28.050;2024-03-02T01:29:11;40.0;40.0;
52290;PMS5003;39663;45.432;28.050;2024-03-02T01:29:42;42.0;34.0;
52290;PMS5003;39663;45.432;28.050;2024-03-02T01:30:17;39.0;35.0;
52290;PMS5003;39663;45.432;28.050;2024-03-02T01:30:58;48.0;44.0;
52290;PMS5003;39663;45.432;28.050;2024-03-02T01:31:29;45.0;42.0;
52290;PMS5003;39663;45.432;28.050;2024-03-02T01:32:01;40.0;40.0;
52290;PMS5003;39663;45.432;28.050;2024-03-02T01:32:32;44.0;42.0;
52290;PMS5003;39663;45.432;28.050;2024-03-02T01:33:06;42.0;39.0;
52290;PMS5003;39663;45.432;28.050;2024-03-02T01:33:43;51.0;46.0;
52290;PMS5003;39663;45.432;28.050;2024-03-02T01:34:14;40.0;35.0;
52290;PMS5003;39663;45.432;28.050;2024-03-02T01:34:45;44.0;39.0;
52290;PMS5003;39663;45.432;28.050;2024-03-02T01:35:17;45.0;41.0;
52290;PMS5003;39663;45.432;28.050;2024-03-02T01:35:48;41.0;39.0;
52290;PMS5003;39663;45.432;28.050;2024-03-02T01:36:20;47.0;42.0;
52290;PMS5003;39663;45.432;28.050;2024-03-02T01:36:51;43.0;38.0;
52290;PMS5003;39663;45.432;28.050;2024-03-02T01:37:23;52.0;47.0;
52290;PMS5003;39663;45.432;28.050;2024-03-02T01:37:54;42.0;39.0;
52290;PMS5003;39663;45.432;28.050;2024-03-02T01:38:26;35.0;35.0;
52290;PMS5003;39663;45.432;28.050;2024-03-02T01:38:57;41.0;38.0;
52290;PMS5003;39663;45.432;28.050;2024-03-02T01:39:29;36.0;34.0;
52290;PMS5003;39663;45.432;28.050;2024-03-02T01:40:00;41.0;36.0;
52290;PMS5003;39663;45.432;28.050;2024-03-02T01:40:32;40.0;36.0;
52290;PMS5003;39663;45.432;28.050;2024-03-02T01:41:04;41.0;38.0;
52290;PMS5003;39663;45.432;28.050;2024-03-02T01:41:37;41.0;33.0;
52290;PMS5003;39663;45.432;28.050;2024-03-02T01:42:10;47.0;42.0;
52290;PMS5003;39663;45.432;28.050;2024-03-02T01:42:41;42.0;36.0;
52290;PMS5003;39663;45.432;28.050;2024-03-02T01:43:14;37.0;37.0;
52290;PMS5003;39663;45.432;28.050;2024-03-02T01:43:50;36.0;36.0;
52290;PMS5003;39663;45.432;28.050;2024-03-02T01:44:22;46.0;38.0;
52290;PMS5003;39663;45.432;28.050;2024-03-02T01:44:53;43.0;36.0;
52290;PMS5003;39663;45.432;28.050;2024-03-02T01:45:25;34.0;32.0;
52290;PMS5003;39663;45.432;28.050;2024-03-02T01:45:56;43.0;39.0;
52290;PMS5003;39663;45.432;28.050;2024-03-02T01:46:28;43.0;41.0;
52290;PMS5003;39663;45.432;28.050;2024-03-02T01:46:59;46.0;40.0;
52290;PMS5003;39663;45.432;28.050;2024-03-02T01:47:30;43.0;36.0;
52290;PMS5003;39663;45.432;28.050;2024-03-02T01:48:02;49.0;35.0;
52290;PMS5003;39663;45.432;28.050;2024-03-02T01:48:34;44.0;40.0;
52290;PMS5003;39663;45.432;28.050;2024-03-02T01:49:10;48.0;40.0;
52290;PMS5003;39663;45.432;28.050;2024-03-02T01:49:42;40.0;39.0;
52290;PMS5003;39663;45.432;28.050;2024-03-02T01:50:13;49.0;43.0;
52290;PMS5003;39663;45.432;28.050;2024-03-02T01:50:45;48.0;44.0;
52290;PMS5003;39663;45.432;28.050;2024-03-02T01:51:17;44.0;42.0;
52290;PMS5003;39663;45.432;28.050;2024-03-02T01:51:48;41.0;37.0;
52290;PMS5003;39663;45.432;28.050;2024-03-02T01:52:19;42.0;37.0;
52290;PMS5003;39663;45.432;28.050;2024-03-02T01:52:51;47.0;42.0;
52290;PMS5003;39663;45.432;28.050;2024-03-02T01:53:23;49.0;44.0;
52290;PMS5003;39663;45.432;28.050;2024-03-02T01:53:54;50.0;43.0;
52290;PMS5003;39663;45.432;28.050;2024-03-02T01:54:25;43.0;37.0;
52290;PMS5003;39663;45.432;28.050;2024-03-02T01:54:57;37.0;35.0;
52290;PMS5003;39663;45.432;28.050;2024-03-02T01:55:29;43.0;39.0;
52290;PMS5003;39663;45.432;28.050;2024-03-02T01:56:03;43.0;42.0;
52290;PMS5003;39663;45.432;28.050;2024-03-02T01:56:35;45.0;40.0;
52290;PMS5003;39663;45.432;28.050;2024-03-02T01:57:09;37.0;37.0;
52290;PMS5003;39663;45.432;28.050;2024-03-02T01:57:43;41.0;41.0;
52290;PMS5003;39663;45.432;28.050;2024-03-02T01:58:14;45.0;42.0;
52290;PMS5003;39663;45.432;28.050;2024-03-02T01:58:47;37.0;37.0;
52290;PMS5003;39663;45.432;28.050;2024-03-02T02:01:34;34.0;33.0;
52290;PMS5003;39663;45.432;28.050;2024-03-02T02:02:05;42.0;36.0;
52290;PMS5003;39663;45.432;28.050;2024-03-02T02:02:37;40.0;40.0;
52290;PMS5003;39663;45.432;28.050;2024-03-02T02:03:08;35.0;34.0;
52290;PMS5003;39663;45.432;28.050;2024-03-02T02:03:40;34.0;33.0;
52290;PMS5003;39663;45.432;28.050;2024-03-02T02:04:11;41.0;38.0;
52290;PMS5003;39663;45.432;28.050;2024-03-02T02:04:42;39.0;34.0;
52290;PMS5003;39663;45.432;28.050;2024-03-02T02:05:14;36.0;32.0;
52290;PMS5003;39663;45.432;28.050;2024-03-02T02:05:45;40.0;38.0;
52290;PMS5003;39663;45.432;28.050;2024-03-02T02:06:17;34.0;33.0;
52290;PMS5003;39663;45.432;28.050;2024-03-02T02:06:48;31.0;30.0;
52290;PMS5003;39663;45.432;28.050;2024-03-02T02:07:19;33.0;32.0;
52290;PMS5003;39663;45.432;28.050;2024-03-02T02:07:51;33.0;31.0;
52290;PMS5003;39663;45.432;28.050;2024-03-02T02:08:22;35.0;30.0;
52290;PMS5003;39663;45.432;28.050;2024-03-02T02:08:53;40.0;32.0;
52290;PMS5003;39663;45.432;28.050;2024-03-02T02:09:30;33.0;31.0;
52290;PMS5003;39663;45.432;28.050;2024-03-02T02:10:01;35.0;33.0;
52290;PMS5003;39663;45.432;28.050;2024-03-02T02:10:33;38.0;33.0;
52290;PMS5003;39663;45.432;28.050;2024-03-02T02:11:04;43.0;42.0;
52290;PMS5003;39663;45.432;28.050;2024-03-02T02:11:36;42.0;41.0;
52290;PMS5003;39663;45.432;28.050;2024-03-02T02:12:08;40.0;35.0;
52290;PMS5003;39663;45.432;28.050;2024-03-02T02:12:40;46.0;42.0;
52290;PMS5003;39663;45.432;28.050;2024-03-02T02:13:11;38.0;35.0;
52290;PMS5003;39663;45.432;28.050;2024-03-02T02:13:48;36.0;36.0;
52290;PMS5003;39663;45.432;28.050;2024-03-02T02:14:19;36.0;33.0;
52290;PMS5003;39663;45.432;28.050;2024-03-02T02:14:51;30.0;28.0;
52290;PMS5003;39663;45.432;28.050;2024-03-02T02:15:23;41.0;37.0;
52290;PMS5003;39663;45.432;28.050;2024-03-02T02:15:55;43.0;41.0;
52290;PMS5003;39663;45.432;28.050;2024-03-02T02:16:35;36.0;34.0;
52290;PMS5003;39663;45.432;28.050;2024-03-02T02:17:07;37.0;32.0;
52290;PMS5003;39663;45.432;28.050;2024-03-02T02:17:38;38.0;33.0;
52290;PMS5003;39663;45.432;28.050;2024-03-02T02:18:10;37.0;35.0;
52290;PMS5003;39663;45.432;28.050;2024-03-02T02:18:41;44.0;39.0;
52290;PMS5003;39663;45.432;28.050;2024-03-02T02:19:13;40.0;36.0;
52290;PMS5003;39663;45.432;28.050;2024-03-02T02:19:44;49.0;42.0;
52290;PMS5003;39663;45.432;28.050;2024-03-02T02:20:17;39.0;34.0;
52290;PMS5003;39663;45.432;28.050;2024-03-02T02:20:48;37.0;32.0;
52290;PMS5003;39663;45.432;28.050;2024-03-02T02:21:22;43.0;41.0;
52290;PMS5003;39663;45.432;28.050;2024-03-02T02:21:53;37.0;35.0;
52290;PMS5003;39663;45.432;28.050;2024-03-02T02:22:26;37.0;34.0;
52290;PMS5003;39663;45.432;28.050;2024-03-02T02:23:03;43.0;37.0;
52290;PMS5003;39663;45.432;28.050;2024-03-02T02:23:35;35.0;32.0;
52290;PMS5003;39663;45.432;28.050;2024-03-02T02:24:06;33.0;31.0;
52290;PMS5003;39663;45.432;28.050;2024-03-02T02:24:39;39.0;35.0;
52290;PMS5003;39663;45.432;28.050;2024-03-02T02:25:11;34.0;32.0;
52290;PMS5003;39663;45.432;28.050;2024-03-02T02:25:42;37.0;31.0;
52290;PMS5003;39663;45.432;28.050;2024-03-02T02:26:13;41.0;37.0;
52290;PMS5003;39663;45.432;28.050;2024-03-02T02:26:45;38.0;33.0;
52290;PMS5003;39663;45.432;28.050;2024-03-02T02:27:16;43.0;35.0;
52290;PMS5003;39663;45.432;28.050;2024-03-02T02:27:48;40.0;36.0;
52290;PMS5003;39663;45.432;28.050;2024-03-02T02:28:19;40.0;36.0;
52290;PMS5003;39663;45.432;28.050;2024-03-02T02:28:51;46.0;39.0;
52290;PMS5003;39663;45.432;28.050;2024-03-02T02:29:22;34.0;33.0;
52290;PMS5003;39663;45.432;28.050;2024-03-02T02:29:53;33.0;32.0;
52290;PMS5003;39663;45.432;28.050;2024-03-02T02:30:26;37.0;34.0;
52290;PMS5003;39663;45.432;28.050;2024-03-02T02:30:58;33.0;32.0;
52290;PMS5003;39663;45.432;28.050;2024-03-02T02:31:36;36.0;33.0;
52290;PMS5003;39663;45.432;28.050;2024-03-02T02:32:08;37.0;36.0;
52290;PMS5003;39663;45.432;28.050;2024-03-02T02:32:40;38.0;33.0;
52290;PMS5003;39663;45.432;28.050;2024-03-02T02:33:11;40.0;38.0;
52290;PMS5003;39663;45.432;28.050;2024-03-02T02:33:43;41.0;37.0;
52290;PMS5003;39663;45.432;28.050;2024-03-02T02:34:14;36.0;33.0;
52290;PMS5003;39663;45.432;28.050;2024-03-02T02:34:45;35.0;30.0;
52290;PMS5003;39663;45.432;28.050;2024-03-02T02:35:17;39.0;35.0;
52290;PMS5003;39663;45.432;28.050;2024-03-02T02:35:51;43.0;40.0;
52290;PMS5003;39663;45.432;28.050;2024-03-02T02:36:24;36.0;32.0;
52290;PMS5003;39663;45.432;28.050;2024-03-02T02:37:30;38.0;34.0;
52290;PMS5003;39663;45.432;28.050;2024-03-02T02:38:02;38.0;35.0;
52290;PMS5003;39663;45.432;28.050;2024-03-02T02:38:35;36.0;35.0;
52290;PMS5003;39663;45.432;28.050;2024-03-02T02:39:13;39.0;35.0;
52290;PMS5003;39663;45.432;28.050;2024-03-02T02:39:47;43.0;38.0;
52290;PMS5003;39663;45.432;28.050;2024-03-02T02:40:19;44.0;33.0;
52290;PMS5003;39663;45.432;28.050;2024-03-02T02:40:50;46.0;33.0;
52290;PMS5003;39663;45.432;28.050;2024-03-02T02:41:21;34.0;30.0;
52290;PMS5003;39663;45.432;28.050;2024-03-02T02:41:53;33.0;31.0;
52290;PMS5003;39663;45.432;28.050;2024-03-02T02:42:24;34.0;32.0;
52290;PMS5003;39663;45.432;28.050;2024-03-02T02:42:56;34.0;25.0;
52290;PMS5003;39663;45.432;28.050;2024-03-02T02:43:27;37.0;33.0;
52290;PMS5003;39663;45.432;28.050;2024-03-02T02:43:59;32.0;30.0;
52290;PMS5003;39663;45.432;28.050;2024-03-02T02:44:30;35.0;33.0;
52290;PMS5003;39663;45.432;28.050;2024-03-02T02:45:03;36.0;30.0;
52290;PMS5003;39663;45.432;28.050;2024-03-02T02:45:36;35.0;34.0;
52290;PMS5003;39663;45.432;28.050;2024-03-02T02:46:08;37.0;34.0;
52290;PMS5003;39663;45.432;28.050;2024-03-02T02:46:39;33.0;30.0;
52290;PMS5003;39663;45.432;28.050;2024-03-02T02:47:11;38.0;35.0;
52290;PMS5003;39663;45.432;28.050;2024-03-02T02:47:42;33.0;29.0;
52290;PMS5003;39663;45.432;28.050;2024-03-02T02:48:14;36.0;32.0;
52290;PMS5003;39663;45.432;28.050;2024-03-02T02:48:46;41.0;39.0;
52290;PMS5003;39663;45.432;28.050;2024-03-02T02:49:17;35.0;34.0;
52290;PMS5003;39663;45.432;28.050;2024-03-02T02:49:49;34.0;31.0;
52290;PMS5003;39663;45.432;28.050;2024-03-02T02:50:20;40.0;35.0;
52290;PMS5003;39663;45.432;28.050;2024-03-02T02:50:52;37.0;35.0;
52290;PMS5003;39663;45.432;28.050;2024-03-02T02:51:23;27.0;27.0;
52290;PMS5003;39663;45.432;28.050;2024-03-02T02:51:57;40.0;36.0;
52290;PMS5003;39663;45.432;28.050;2024-03-02T02:52:31;42.0;38.0;
52290;PMS5003;39663;45.432;28.050;2024-03-02T02:53:03;34.0;32.0;
52290;PMS5003;39663;45.432;28.050;2024-03-02T02:53:42;33.0;30.0;
52290;PMS5003;39663;45.432;28.050;2024-03-02T02:54:13;39.0;38.0;
52290;PMS5003;39663;45.432;28.050;2024-03-02T02:54:44;41.0;40.0;
52290;PMS5003;39663;45.432;28.050;2024-03-02T02:55:16;47.0;42.0;
52290;PMS5003;39663;45.432;28.050;2024-03-02T02:55:47;51.0;44.0;
52290;PMS5003;39663;45.432;28.050;2024-03-02T02:56:18;44.0;39.0;
52290;PMS5003;39663;45.432;28.050;2024-03-02T02:56:50;48.0;43.0;
52290;PMS5003;39663;45.432;28.050;2024-03-02T02:57:21;42.0;37.0;
52290;PMS5003;39663;45.432;28.050;2024-03-02T02:57:52;40.0;37.0;
52290;PMS5003;39663;45.432;28.050;2024-03-02T02:58:24;39.0;38.0;
52290;PMS5003;39663;45.432;28.050;2024-03-02T02:58:56;44.0;35.0;
52290;PMS5003;39663;45.432;28.050;2024-03-02T02:59:27;48.0;45.0;
52290;PMS5003;39663;45.432;28.050;2024-03-02T02:59:59;43.0;41.0;
52290;PMS5003;39663;45.432;28.050;2024-03-02T03:00:30;46.0;42.0;
52290;PMS5003;39663;45.432;28.050;2024-03-02T03:01:02;47.0;43.0;
52290;PMS5003;39663;45.432;28.050;2024-03-02T03:01:33;50.0;47.0;
52290;PMS5003;39663;45.432;28.050;2024-03-02T03:02:10;42.0;39.0;
52290;PMS5003;39663;45.432;28.050;2024-03-02T03:02:41;41.0;38.0;
52290;PMS5003;39663;45.432;28.050;2024-03-02T03:03:14;50.0;45.0;
52290;PMS5003;39663;45.432;28.050;2024-03-02T03:03:45;46.0;44.0;
52290;PMS5003;39663;45.432;28.050;2024-03-02T03:04:16;40.0;36.0;
52290;PMS5003;39663;45.432;28.050;2024-03-02T03:04:48;44.0;42.0;
52290;PMS5003;39663;45.432;28.050;2024-03-02T03:05:19;46.0;41.0;
52290;PMS5003;39663;45.432;28.050;2024-03-02T03:05:51;41.0;40.0;
52290;PMS5003;39663;45.432;28.050;2024-03-02T03:06:22;48.0;43.0;
52290;PMS5003;39663;45.432;28.050;2024-03-02T03:06:54;43.0;38.0;
52290;PMS5003;39663;45.432;28.050;2024-03-02T03:07:26;42.0;38.0;
52290;PMS5003;39663;45.432;28.050;2024-03-02T03:08:00;45.0;39.0;
52290;PMS5003;39663;45.432;28.050;2024-03-02T03:08:32;45.0;43.0;
52290;PMS5003;39663;45.432;28.050;2024-03-02T03:09:06;48.0;41.0;
52290;PMS5003;39663;45.432;28.050;2024-03-02T03:09:37;44.0;38.0;
52290;PMS5003;39663;45.432;28.050;2024-03-02T03:10:10;39.0;37.0;
52290;PMS5003;39663;45.432;28.050;2024-03-02T03:10:43;38.0;38.0;
52290;PMS5003;39663;45.432;28.050;2024-03-02T03:11:14;45.0;39.0;
52290;PMS5003;39663;45.432;28.050;2024-03-02T03:11:45;37.0;35.0;
52290;PMS5003;39663;45.432;28.050;2024-03-02T03:12:17;46.0;39.0;
52290;PMS5003;39663;45.432;28.050;2024-03-02T03:12:48;46.0;43.0;
52290;PMS5003;39663;45.432;28.050;2024-03-02T03:13:20;39.0;36.0;
52290;PMS5003;39663;45.432;28.050;2024-03-02T03:13:51;42.0;37.0;
52290;PMS5003;39663;45.432;28.050;2024-03-02T03:14:23;43.0;38.0;
52290;PMS5003;39663;45.432;28.050;2024-03-02T03:14:55;50.0;46.0;
52290;PMS5003;39663;45.432;28.050;2024-03-02T03:15:26;44.0;36.0;
52290;PMS5003;39663;45.432;28.050;2024-03-02T03:15:58;55.0;45.0;
52290;PMS5003;39663;45.432;28.050;2024-03-02T03:16:34;45.0;44.0;
52290;PMS5003;39663;45.432;28.050;2024-03-02T03:17:06;45.0;40.0;
52290;PMS5003;39663;45.432;28.050;2024-03-02T03:17:38;42.0;37.0;
52290;PMS5003;39663;45.432;28.050;2024-03-02T03:18:09;50.0;45.0;
52290;PMS5003;39663;45.432;28.050;2024-03-02T03:18:41;49.0;45.0;
52290;PMS5003;39663;45.432;28.050;2024-03-02T03:19:12;46.0;40.0;
52290;PMS5003;39663;45.432;28.050;2024-03-02T03:19:45;52.0;47.0;
52290;PMS5003;39663;45.432;28.050;2024-03-02T03:20:16;51.0;48.0;
52290;PMS5003;39663;45.432;28.050;2024-03-02T03:20:48;44.0;41.0;
52290;PMS5003;39663;45.432;28.050;2024-03-02T03:21:19;50.0;47.0;
52290;PMS5003;39663;45.432;28.050;2024-03-02T03:21:50;57.0;55.0;
52290;PMS5003;39663;45.432;28.050;2024-03-02T03:22:22;46.0;43.0;
52290;PMS5003;39663;45.432;28.050;2024-03-02T03:22:53;49.0;44.0;
52290;PMS5003;39663;45.432;28.050;2024-03-02T03:23:24;48.0;44.0;
52290;PMS5003;39663;45.432;28.050;2024-03-02T03:23:56;45.0;42.0;
52290;PMS5003;39663;45.432;28.050;2024-03-02T03:24:27;45.0;41.0;
52290;PMS5003;39663;45.432;28.050;2024-03-02T03:24:59;39.0;37.0;
52290;PMS5003;39663;45.432;28.050;2024-03-02T03:25:30;47.0;43.0;
52290;PMS5003;39663;45.432;28.050;2024-03-02T03:26:02;49.0;44.0;
52290;PMS5003;39663;45.432;28.050;2024-03-02T03:26:35;47.0;43.0;
52290;PMS5003;39663;45.432;28.050;2024-03-02T03:27:06;42.0;39.0;
52290;PMS5003;39663;45.432;28.050;2024-03-02T03:27:38;51.0;48.0;
52290;PMS5003;39663;45.432;28.050;2024-03-02T03:28:16;54.0;45.0;
52290;PMS5003;39663;45.432;28.050;2024-03-02T03:28:49;50.0;47.0;
52290;PMS5003;39663;45.432;28.050;2024-03-02T03:29:20;47.0;46.0;
52290;PMS5003;39663;45.432;28.050;2024-03-02T03:29:52;54.0;49.0;
52290;PMS5003;39663;45.432;28.050;2024-03-02T03:30:23;59.0;56.0;
52290;PMS5003;39663;45.432;28.050;2024-03-02T03:30:54;49.0;47.0;
52290;PMS5003;39663;45.432;28.050;2024-03-02T03:31:26;53.0;50.0;
52290;PMS5003;39663;45.432;28.050;2024-03-02T03:31:57;62.0;54.0;
52290;PMS5003;39663;45.432;28.050;2024-03-02T03:32:29;51.0;48.0;
52290;PMS5003;39663;45.432;28.050;2024-03-02T03:33:00;54.0;51.0;